Time;durP1;ratioP1;P1;durP2;ratioP2;P2;SDS_P1;SDS_P2;PMS_P1;PMS_P2;Temp;Humidity;BMP_temperature;BMP_pressure;BME280_temperature;BME280_humidity;BME280_pressure;Samples;Min_cycle;Max_cycle;Signal;HPM_P1;HPM_P2
2022/01/13 00:02:17;;;;;;;7.90;3.95;;;-5.50;99.90;;;;;;5054072;28;20045;-47
2022/01/13 00:04:46;;;;;;;11.45;3.10;;;-5.60;99.90;;;;;;5053870;28;20045;-47
2022/01/13 00:07:13;;;;;;;7.35;3.28;;;-5.60;99.90;;;;;;5053495;28;20041;-49
2022/01/13 00:09:40;;;;;;;7.70;3.80;;;-5.60;99.90;;;;;;5053910;28;20041;-49
2022/01/13 00:12:09;;;;;;;15.55;3.70;;;-5.60;99.90;;;;;;5053240;28;20051;-48
2022/01/13 00:20:11;;;;;;;7.35;3.15;;;-5.50;99.90;;;;;;5030416;28;20053;-50
2022/01/13 00:25:46;;;;;;;6.88;2.30;;;-5.60;99.90;;;;;;5053389;28;20049;-51
2022/01/13 00:28:15;;;;;;;5.88;2.78;;;-5.70;99.90;;;;;;5053489;28;20045;-48
2022/01/13 00:30:43;;;;;;;8.85;3.28;;;-5.70;99.90;;;;;;5035378;28;20505;-49
2022/01/13 00:33:11;;;;;;;9.68;3.78;;;-5.70;99.90;;;;;;5053261;28;20037;-52
2022/01/13 00:35:38;;;;;;;10.13;4.13;;;-5.70;99.90;;;;;;5052950;28;20075;-47
2022/01/13 00:38:05;;;;;;;12.00;4.85;;;-5.60;99.90;;;;;;5053157;28;20041;-48
2022/01/13 00:40:32;;;;;;;11.80;4.32;;;-5.50;99.90;;;;;;5053334;28;20295;-48
2022/01/13 00:42:59;;;;;;;11.57;4.28;;;-5.50;99.90;;;;;;5053049;28;20509;-47
2022/01/13 00:45:26;;;;;;;11.38;4.63;;;-5.60;99.90;;;;;;5052668;28;20460;-47
2022/01/13 00:47:52;;;;;;;10.75;4.75;;;-5.90;99.90;;;;;;5053101;28;20052;-51
2022/01/13 00:50:19;;;;;;;16.10;4.80;;;-6.00;99.90;;;;;;5053204;28;20053;-48
2022/01/13 00:52:46;;;;;;;8.35;3.72;;;-6.00;99.90;;;;;;5053093;28;20045;-50
2022/01/13 00:55:20;;;;;;;8.25;3.70;;;-5.90;99.90;;;;;;5052740;28;20045;-48
2022/01/13 00:57:48;;;;;;;11.55;5.05;;;-5.90;99.90;;;;;;5052891;28;20037;-50
2022/01/13 01:00:15;;;;;;;13.95;6.10;;;-5.80;99.90;;;;;;5052885;28;20040;-48
2022/01/13 01:02:42;;;;;;;15.25;6.15;;;-5.80;99.90;;;;;;5052980;28;20037;-51
2022/01/13 01:05:09;;;;;;;14.13;5.38;;;-5.70;99.90;;;;;;5052422;28;20132;-48
2022/01/13 01:07:36;;;;;;;11.77;4.47;;;-5.70;99.90;;;;;;5052911;28;20424;-47
2022/01/13 01:10:05;;;;;;;7.00;2.90;;;-5.70;99.90;;;;;;5052775;28;20425;-48
2022/01/13 01:12:34;;;;;;;5.82;2.58;;;-5.80;99.90;;;;;;5052582;28;20048;-48
2022/01/13 01:15:01;;;;;;;8.20;3.45;;;-6.00;99.90;;;;;;5052622;28;20409;-47
2022/01/13 01:17:29;;;;;;;;;;;-6.00;99.90;;;;;;5052590;28;20040;-47
2022/01/13 01:19:56;;;;;;;7.65;3.05;;;-6.10;99.90;;;;;;5052629;28;19920;-50
2022/01/13 01:27:32;;;;;;;9.85;3.03;;;-6.10;99.90;;;;;;5051797;28;20052;-50
2022/01/13 01:30:14;;;;;;;8.48;2.38;;;-6.10;99.90;;;;;;5052433;28;20075;-48
2022/01/13 01:32:43;;;;;;;5.20;2.08;;;-6.30;99.90;;;;;;5052340;28;20033;-49
2022/01/13 01:35:14;;;;;;;8.80;2.35;;;-6.20;99.90;;;;;;5052544;28;20052;-50
2022/01/13 01:37:43;;;;;;;5.60;2.03;;;-6.20;99.90;;;;;;5052030;28;20555;-47
2022/01/13 01:40:12;;;;;;;8.68;2.92;;;-6.10;99.90;;;;;;5052015;28;20049;-47
2022/01/13 01:42:39;;;;;;;3.63;1.92;;;-6.20;99.90;;;;;;5052052;28;20106;-51
2022/01/13 01:45:07;;;;;;;;;;;-6.20;99.90;;;;;;5052490;28;20414;-50
2022/01/13 01:47:35;;;;;;;;;;;-6.10;99.90;;;;;;5051990;28;19959;-49
2022/01/13 01:50:11;;;;;;;4.60;1.30;;;-6.10;99.90;;;;;;5051445;28;19974;-49
2022/01/13 01:52:39;;;;;;;6.95;2.13;;;-6.10;99.90;;;;;;5052184;28;20448;-48
2022/01/13 01:55:07;;;;;;;6.25;2.67;;;-6.20;99.90;;;;;;5051435;28;20508;-53
2022/01/13 01:57:34;;;;;;;5.07;2.17;;;-6.40;99.90;;;;;;5050768;28;20076;-48
2022/01/13 02:00:02;;;;;;;;;;;-6.50;99.90;;;;;;5050462;28;20450;-47
2022/01/13 02:02:38;;;;;;;7.97;2.08;;;-6.50;99.90;;;;;;5051619;28;19925;-50
2022/01/13 02:05:05;;;;;;;8.10;2.53;;;-6.50;99.90;;;;;;5050597;28;20063;-49
2022/01/13 02:07:32;;;;;;;4.57;2.20;;;-6.50;99.90;;;;;;5050808;28;20053;-48
2022/01/13 02:09:59;;;;;;;4.75;2.03;;;-6.50;99.90;;;;;;5051770;28;20468;-49
2022/01/13 02:12:35;;;;;;;6.57;2.45;;;-6.50;99.90;;;;;;5051848;28;20049;-48
2022/01/13 02:16:01;;;;;;;4.13;1.70;;;-6.40;99.90;;;;;;5051553;28;20124;-48
2022/01/13 02:17:53;;;;;;;7.20;1.98;;;-6.50;99.90;;;;;;5040913;28;20053;-49
2022/01/13 02:20:20;;;;;;;4.68;1.90;;;-6.50;99.90;;;;;;5051616;28;20044;-47
2022/01/13 02:22:47;;;;;;;4.97;1.75;;;-6.40;99.90;;;;;;5051559;28;20049;-49
2022/01/13 02:25:15;;;;;;;7.88;2.42;;;-6.50;99.90;;;;;;5050991;28;20068;-48
2022/01/13 02:27:43;;;;;;;4.82;1.83;;;-6.50;99.90;;;;;;5051356;28;20048;-50
2022/01/13 02:30:10;;;;;;;6.57;2.63;;;-6.50;99.90;;;;;;5051312;28;20497;-51
2022/01/13 02:32:37;;;;;;;6.15;2.60;;;-6.30;99.90;;;;;;5051237;28;20123;-48
2022/01/13 02:35:05;;;;;;;7.05;2.22;;;-6.30;99.90;;;;;;5051203;28;20087;-49
2022/01/13 02:37:32;;;;;;;8.82;2.35;;;-6.20;99.90;;;;;;5051066;28;20299;-48
2022/01/13 02:39:59;;;;;;;9.55;2.20;;;-6.20;99.90;;;;;;5050940;28;20048;-48
2022/01/13 02:42:26;;;;;;;7.45;2.65;;;-6.10;99.90;;;;;;5051374;28;20555;-48
2022/01/13 02:45:14;;;;;;;5.57;2.58;;;-6.10;99.90;;;;;;5051253;28;20091;-49
2022/01/13 02:50:10;;;;;;;9.63;2.83;;;-6.00;99.90;;;;;;5051196;28;20052;-48
2022/01/13 02:52:38;;;;;;;8.30;3.22;;;-6.00;99.90;;;;;;5051183;28;20074;-47
2022/01/13 02:55:06;;;;;;;7.05;2.65;;;-6.00;99.90;;;;;;5050668;28;20114;-47
2022/01/13 02:57:35;;;;;;;5.93;2.85;;;-6.10;99.90;;;;;;5051012;28;20091;-48
2022/01/13 03:00:03;;;;;;;7.82;3.10;;;-6.10;99.90;;;;;;5051163;28;20041;-47
2022/01/13 03:02:31;;;;;;;5.93;2.78;;;-6.20;99.90;;;;;;5053408;28;20559;-48
2022/01/13 03:04:59;;;;;;;8.45;3.42;;;-6.20;99.90;;;;;;5054847;28;20049;-48
2022/01/13 03:07:30;;;;;;;13.70;4.07;;;-6.30;99.90;;;;;;5054758;28;20073;-49
2022/01/13 03:09:57;;;;;;;8.05;3.58;;;-6.40;99.90;;;;;;5055039;28;20072;-48
2022/01/13 03:12:26;;;;;;;12.25;4.57;;;-6.40;99.90;;;;;;5055167;28;20508;-49
2022/01/13 03:14:56;;;;;;;7.88;3.75;;;-6.40;99.90;;;;;;5054890;28;20401;-48
2022/01/13 03:17:23;;;;;;;8.80;3.92;;;-6.40;99.90;;;;;;5054207;28;20077;-47
2022/01/13 03:19:49;;;;;;;10.27;3.97;;;-6.40;99.90;;;;;;5054880;28;20267;-47
2022/01/13 03:22:16;;;;;;;11.73;4.22;;;-6.40;99.90;;;;;;5054773;28;20409;-48
2022/01/13 03:24:43;;;;;;;9.88;3.50;;;-6.50;99.90;;;;;;5054784;28;20087;-47
2022/01/13 03:27:18;;;;;;;10.48;3.95;;;-6.60;99.90;;;;;;5054563;28;20052;-48
2022/01/13 03:29:46;;;;;;;9.38;3.45;;;-6.60;99.90;;;;;;5054792;28;20048;-51
2022/01/13 03:32:15;;;;;;;10.38;4.97;;;-6.60;99.90;;;;;;5054358;28;20040;-48
2022/01/13 03:34:42;;;;;;;12.02;3.70;;;-6.60;99.90;;;;;;5054695;28;20063;-47
2022/01/13 03:37:09;;;;;;;15.93;4.68;;;-6.60;99.90;;;;;;5053982;28;20053;-50
2022/01/13 03:39:36;;;;;;;9.85;4.32;;;-6.70;99.90;;;;;;5054440;28;20045;-47
2022/01/13 03:42:03;;;;;;;14.60;3.55;;;-6.70;99.90;;;;;;5054115;28;20497;-49
2022/01/13 03:44:30;;;;;;;8.48;2.88;;;-6.70;99.90;;;;;;5036550;28;20052;-47
2022/01/13 03:47:01;;;;;;;8.73;4.10;;;-6.70;99.90;;;;;;5053872;28;20099;-47
2022/01/13 03:49:29;;;;;;;7.68;3.05;;;-6.60;99.90;;;;;;5054331;28;20045;-48
2022/01/13 03:51:59;;;;;;;8.27;3.22;;;-6.60;99.90;;;;;;5054155;28;20459;-47
2022/01/13 03:54:31;;;;;;;7.93;2.92;;;-6.60;99.90;;;;;;5054102;28;20048;-48
2022/01/13 03:57:35;;;;;;;7.93;3.03;;;-6.70;99.90;;;;;;5053845;28;20443;-49
2022/01/13 04:00:24;;;;;;;6.65;2.78;;;-6.60;99.90;;;;;;5054236;28;20071;-48
2022/01/13 04:02:50;;;;;;;;;;;-6.60;99.90;;;;;;5054248;28;20124;-48
2022/01/13 04:05:17;;;;;;;5.63;2.17;;;-6.60;99.90;;;;;;5053642;28;19927;-48
2022/01/13 04:07:44;;;;;;;7.05;2.20;;;-6.60;99.90;;;;;;5053974;28;20122;-50
2022/01/13 04:10:54;;;;;;;8.90;2.88;;;-6.60;99.90;;;;;;5053978;28;20049;-47
2022/01/13 04:13:34;;;;;;;5.72;2.28;;;-6.60;99.90;;;;;;5053217;28;20079;-50
2022/01/13 04:16:00;;;;;;;7.38;2.08;;;-6.60;99.90;;;;;;5053368;28;20049;-50
2022/01/13 04:18:27;;;;;;;8.95;2.20;;;-6.60;99.90;;;;;;5053881;28;20412;-49
2022/01/13 04:20:54;;;;;;;9.95;3.30;;;-6.60;99.90;;;;;;5053774;28;20041;-51
2022/01/13 04:23:21;;;;;;;4.97;1.90;;;-6.60;99.90;;;;;;5053600;28;20049;-51
2022/01/13 04:25:48;;;;;;;6.68;2.20;;;-6.70;99.90;;;;;;5053172;28;20079;-51
2022/01/13 04:28:15;;;;;;;4.85;1.83;;;-6.80;99.90;;;;;;5053123;28;20041;-49
2022/01/13 04:30:47;;;;;;;8.88;2.08;;;-6.90;99.90;;;;;;5053758;28;20052;-50
2022/01/13 04:33:15;;;;;;;4.57;1.67;;;-7.10;99.90;;;;;;5053374;28;20056;-51
2022/01/13 04:35:42;;;;;;;3.28;1.60;;;-7.10;99.90;;;;;;5053103;28;20087;-49
2022/01/13 04:38:34;;;;;;;4.90;1.83;;;-7.20;99.90;;;;;;5079814;22;20045;-56
2022/01/13 04:41:02;;;;;;;5.53;2.00;;;-7.10;99.90;;;;;;5073236;28;20073;-52
2022/01/13 04:44:12;;;;;;;5.40;2.00;;;-7.10;99.90;;;;;;5051631;28;20167;-52
2022/01/13 04:46:39;;;;;;;4.93;2.42;;;-7.10;99.90;;;;;;5052824;28;20061;-55
2022/01/13 04:49:07;;;;;;;8.02;2.35;;;-7.10;99.90;;;;;;5053005;28;20064;-53
2022/01/13 04:51:35;;;;;;;6.60;2.55;;;-7.20;99.90;;;;;;5052987;28;20094;-52
2022/01/13 04:54:03;;;;;;;8.77;2.90;;;-7.10;99.90;;;;;;5053097;28;20048;-53
2022/01/13 04:59:08;;;;;;;4.78;2.35;;;-7.10;99.90;;;;;;5053289;28;20460;-55
2022/01/13 05:01:35;;;;;;;6.85;2.70;;;-7.10;99.90;;;;;;5052911;28;20041;-55
2022/01/13 05:04:04;;;;;;;5.53;1.88;;;-7.00;99.90;;;;;;5052632;28;20114;-55
2022/01/13 05:06:31;;;;;;;5.75;2.03;;;-7.00;99.90;;;;;;5052294;28;20124;-55
2022/01/13 05:08:58;;;;;;;8.48;2.92;;;-7.00;99.90;;;;;;5053031;28;20482;-54
2022/01/13 05:11:26;;;;;;;6.00;2.63;;;-7.00;99.90;;;;;;5052789;28;20132;-52
2022/01/13 05:13:54;;;;;;;7.70;3.00;;;-7.00;99.90;;;;;;5052684;28;20041;-55
2022/01/13 05:16:26;;;;;;;7.68;2.78;;;-7.00;99.90;;;;;;5051777;28;20501;-53
2022/01/13 05:18:58;;;;;;;6.53;2.72;;;-7.00;99.90;;;;;;5052879;28;20099;-54
2022/01/13 05:21:37;;;;;;;7.28;2.58;;;-6.90;99.90;;;;;;5052629;28;20065;-53
2022/01/13 05:24:04;;;;;;;11.52;3.90;;;-6.90;99.90;;;;;;5051769;28;20061;-55
2022/01/13 05:26:31;;;;;;;7.10;4.05;;;-6.90;99.90;;;;;;5059836;28;20044;-51
2022/01/13 05:28:58;;;;;;;7.25;2.85;;;-6.90;99.90;;;;;;5072388;28;20044;-55
2022/01/13 05:31:25;;;;;;;7.45;2.83;;;-6.90;99.90;;;;;;5072431;28;20120;-56
2022/01/13 05:33:52;;;;;;;7.97;3.30;;;-6.80;99.90;;;;;;5072354;28;20048;-55
2022/01/13 05:36:19;;;;;;;10.63;3.33;;;-6.80;99.90;;;;;;5068474;28;20091;-55
2022/01/13 05:38:46;;;;;;;11.65;3.28;;;-6.70;99.90;;;;;;5069166;28;20048;-52
2022/01/13 05:41:12;;;;;;;7.75;2.95;;;-6.70;99.90;;;;;;5072042;28;20094;-52
2022/01/13 05:43:40;;;;;;;11.25;3.35;;;-6.90;99.90;;;;;;5072226;28;20044;-56
2022/01/13 05:46:09;;;;;;;;;;;-7.10;99.90;;;;;;5054606;28;20071;-55
2022/01/13 05:48:43;;;;;;;8.35;3.08;;;-7.10;99.90;;;;;;5071889;28;19920;-55
2022/01/13 05:51:10;;;;;;;7.88;3.30;;;-6.90;99.90;;;;;;5071831;28;20041;-55
2022/01/13 05:53:37;;;;;;;10.85;4.43;;;-6.90;99.90;;;;;;5062892;28;20048;-56
2022/01/13 05:56:04;;;;;;;11.05;4.63;;;-6.90;99.90;;;;;;5071286;28;20094;-55
2022/01/13 05:58:32;;;;;;;9.15;4.55;;;-6.80;99.90;;;;;;5071063;28;20048;-55
2022/01/13 06:00:59;;;;;;;14.85;4.88;;;-6.70;99.90;;;;;;5071345;28;20532;-55
2022/01/13 06:03:26;;;;;;;13.30;4.82;;;-6.70;99.90;;;;;;5071684;28;20523;-55
2022/01/13 06:05:53;;;;;;;8.65;4.43;;;-6.70;99.90;;;;;;5071065;28;20128;-56
2022/01/13 06:08:19;;;;;;;10.20;4.10;;;-6.70;99.90;;;;;;5071259;28;20051;-55
2022/01/13 06:10:46;;;;;;;13.20;5.38;;;-6.60;99.90;;;;;;5071575;28;20064;-56
2022/01/13 06:13:14;;;;;;;12.50;5.07;;;-6.60;99.90;;;;;;5071634;28;20472;-55
2022/01/13 06:15:41;;;;;;;;;;;-6.60;99.90;;;;;;5071772;28;20078;-53
2022/01/13 06:18:12;;;;;;;15.70;6.93;;;-6.70;99.90;;;;;;5071033;28;20010;-55
2022/01/13 06:20:39;;;;;;;13.93;5.55;;;-6.70;99.90;;;;;;5071709;28;20414;-56
2022/01/13 06:23:08;;;;;;;12.02;4.00;;;-6.70;99.90;;;;;;5071563;28;20044;-52
2022/01/13 06:25:35;;;;;;;8.13;3.35;;;-6.90;99.90;;;;;;5070718;28;20121;-53
2022/01/13 06:28:02;;;;;;;;;;;-7.10;99.90;;;;;;5071694;28;20493;-55
2022/01/13 06:30:40;;;;;;;6.40;3.58;;;-7.00;99.90;;;;;;5070853;28;19927;-52
2022/01/13 06:33:07;;;;;;;11.80;4.47;;;-7.00;99.90;;;;;;5067223;28;20090;-55
2022/01/13 06:35:36;;;;;;;10.68;5.00;;;-7.00;99.90;;;;;;5062800;28;20152;-55
2022/01/13 06:38:03;;;;;;;17.23;5.75;;;-6.90;99.90;;;;;;5068740;28;20493;-55
2022/01/13 06:40:30;;;;;;;14.93;6.32;;;-6.90;99.90;;;;;;5068582;28;20124;-53
2022/01/13 06:42:57;;;;;;;19.67;7.72;;;-6.90;99.90;;;;;;5070032;28;20048;-56
2022/01/13 06:45:24;;;;;;;13.60;6.30;;;-6.90;99.90;;;;;;5069597;28;20076;-54
2022/01/13 06:47:51;;;;;;;23.90;11.07;;;-6.90;99.90;;;;;;5070171;28;20041;-53
2022/01/13 06:50:18;;;;;;;19.80;7.97;;;-6.90;99.90;;;;;;5071216;28;20040;-54
2022/01/13 06:52:47;;;;;;;18.85;8.20;;;-6.80;99.90;;;;;;5071095;28;20093;-54
2022/01/13 06:55:14;;;;;;;19.52;8.25;;;-6.80;99.90;;;;;;5071010;28;20478;-53
2022/01/13 06:57:41;;;;;;;;;;;-6.80;99.90;;;;;;5071574;28;20090;-54
2022/01/13 07:00:08;;;;;;;12.15;4.82;;;-6.80;99.90;;;;;;5071210;28;19924;-53
2022/01/13 07:02:36;;;;;;;10.82;4.03;;;-6.80;99.90;;;;;;5071054;28;20493;-53
2022/01/13 07:05:03;;;;;;;11.77;4.18;;;-6.80;99.90;;;;;;5070943;28;20040;-55
2022/01/13 07:07:35;;;;;;;10.45;4.63;;;-7.00;99.90;;;;;;5070794;28;20546;-55
2022/01/13 07:10:09;;;;;;;12.40;4.80;;;-7.10;99.90;;;;;;5070999;28;20064;-53
2022/01/13 07:12:37;;;;;;;16.73;5.60;;;-7.00;99.90;;;;;;5071270;28;20440;-55
2022/01/13 07:15:05;;;;;;;31.17;10.32;;;-7.00;99.90;;;;;;5070714;28;20048;-55
2022/01/13 07:17:32;;;;;;;43.28;16.40;;;-6.90;99.90;;;;;;5070561;28;20040;-53
2022/01/13 07:19:59;;;;;;;49.40;18.20;;;-6.80;99.90;;;;;;5070979;28;20045;-55
2022/01/13 07:22:26;;;;;;;42.95;16.25;;;-6.80;99.90;;;;;;5071010;28;20048;-55
2022/01/13 07:24:53;;;;;;;44.80;16.10;;;-6.80;99.90;;;;;;5070795;28;20042;-55
2022/01/13 07:27:20;;;;;;;37.60;15.75;;;-6.70;99.90;;;;;;5070443;28;20041;-55
2022/01/13 07:29:48;;;;;;;;;;;-6.60;99.90;;;;;;5071125;28;20068;-56
2022/01/13 07:32:16;;;;;;;24.92;10.38;;;-6.60;99.90;;;;;;5052832;28;20312;-54
2022/01/13 07:34:43;;;;;;;18.63;9.30;;;-6.60;99.90;;;;;;5071014;28;20040;-55
2022/01/13 07:37:14;;;;;;;22.08;9.80;;;-6.60;99.90;;;;;;5070362;28;20437;-54
2022/01/13 07:39:41;;;;;;;16.52;7.57;;;-6.60;99.90;;;;;;5070656;28;20067;-54
2022/01/13 07:42:08;;;;;;;23.40;8.57;;;-6.50;99.90;;;;;;5070783;28;20448;-54
2022/01/13 07:44:35;;;;;;;;;;;-6.40;99.90;;;;;;5071105;28;20098;-56
2022/01/13 07:47:02;;;;;;;20.02;9.13;;;-6.50;99.90;;;;;;5070365;28;19943;-52
2022/01/13 07:49:29;;;;;;;18.70;8.02;;;-6.40;99.90;;;;;;5074324;28;20075;-54
2022/01/13 07:51:56;;;;;;;18.55;7.45;;;-6.40;99.90;;;;;;5074146;28;20086;-55
2022/01/13 07:54:26;;;;;;;;;;;-6.40;99.90;;;;;;5074659;28;20036;-56
2022/01/13 07:56:57;;;;;;;19.77;6.90;;;-6.40;99.90;;;;;;5073878;28;20376;-56
2022/01/13 07:59:27;;;;;;;21.30;8.95;;;-6.40;99.90;;;;;;5074207;28;20512;-53
2022/01/13 08:01:56;;;;;;;20.60;8.15;;;-6.30;99.90;;;;;;5074195;28;20382;-55
2022/01/13 08:04:23;;;;;;;21.30;8.50;;;-6.30;99.90;;;;;;5074103;28;20402;-54
2022/01/13 08:06:50;;;;;;;;;;;-6.20;99.90;;;;;;5074142;28;20044;-54
2022/01/13 08:09:22;;;;;;;19.33;8.13;;;-6.20;99.90;;;;;;5074543;28;19920;-55
2022/01/13 08:11:49;;;;;;;20.88;9.52;;;-6.30;99.90;;;;;;5073888;28;20106;-54
2022/01/13 08:14:15;;;;;;;21.35;10.27;;;-6.30;99.90;;;;;;5073700;28;20132;-54
2022/01/13 08:16:44;;;;;;;23.73;8.68;;;-6.30;99.90;;;;;;5073359;28;20512;-55
2022/01/13 08:21:56;;;;;;;21.55;9.25;;;-6.30;99.90;;;;;;5073863;28;20040;-54
2022/01/13 08:24:23;;;;;;;21.67;9.15;;;-6.20;99.90;;;;;;5073619;28;20052;-56
2022/01/13 08:26:50;;;;;;;22.35;9.75;;;-6.30;99.90;;;;;;5073287;28;20074;-57
2022/01/13 08:29:17;;;;;;;18.90;9.00;;;-6.20;99.90;;;;;;5073576;28;20106;-57
2022/01/13 08:31:45;;;;;;;22.55;8.65;;;-6.10;99.90;;;;;;5073528;28;20044;-53
2022/01/13 08:34:14;;;;;;;21.65;8.60;;;-6.00;99.90;;;;;;5073181;28;20043;-55
2022/01/13 08:36:40;;;;;;;17.75;7.93;;;-6.00;99.90;;;;;;5072871;28;20056;-53
2022/01/13 08:39:08;;;;;;;16.77;8.15;;;-5.90;99.90;;;;;;5073504;28;20040;-54
2022/01/13 08:41:40;;;;;;;20.55;8.52;;;-5.90;99.90;;;;;;5073396;28;20135;-55
2022/01/13 08:44:07;;;;;;;21.23;9.30;;;-5.80;99.90;;;;;;5073117;28;20162;-54
2022/01/13 08:46:34;;;;;;;;;;;-5.60;99.90;;;;;;5073272;28;20044;-55
2022/01/13 08:49:01;;;;;;;19.52;10.27;;;-5.50;99.90;;;;;;5073238;28;20277;-55
2022/01/13 08:51:28;;;;;;;26.65;11.77;;;-5.40;99.90;;;;;;5073298;28;20084;-53
2022/01/13 08:53:55;;;;;;;24.45;11.35;;;-5.20;99.90;;;;;;5073110;28;20076;-56
2022/01/13 08:56:23;;;;;;;24.45;11.45;;;-5.00;99.90;;;;;;5072550;28;20044;-54
2022/01/13 08:58:50;;;;;;;27.88;10.52;;;-4.90;99.90;;;;;;5055547;28;20041;-55
2022/01/13 09:01:17;;;;;;;29.02;10.52;;;-4.80;99.90;;;;;;5072883;28;20036;-56
2022/01/13 09:03:45;;;;;;;23.40;10.93;;;-4.70;99.90;;;;;;5072957;28;20048;-53
2022/01/13 09:06:11;;;;;;;23.13;9.30;;;-4.60;99.90;;;;;;5072687;28;20066;-52
2022/01/13 09:08:39;;;;;;;18.60;8.93;;;-4.50;99.90;;;;;;5072635;28;20049;-55
2022/01/13 09:11:06;;;;;;;17.25;8.70;;;-4.50;99.90;;;;;;5072982;28;20044;-55
2022/01/13 09:13:36;;;;;;;15.60;7.18;;;-4.50;99.90;;;;;;5072511;28;20090;-56
2022/01/13 09:16:13;;;;;;;18.45;8.10;;;-4.40;99.90;;;;;;5072271;28;20094;-53
2022/01/13 09:19:07;;;;;;;20.42;8.85;;;-4.30;99.90;;;;;;5072615;28;20059;-53
2022/01/13 09:21:37;;;;;;;19.70;9.35;;;-4.20;99.90;;;;;;5072684;28;20116;-56
2022/01/13 09:24:09;;;;;;;22.00;10.15;;;-4.20;99.90;;;;;;5072372;28;20052;-51
2022/01/13 09:26:36;;;;;;;18.45;9.70;;;-4.20;99.90;;;;;;5072146;28;20044;-51
2022/01/13 09:29:05;;;;;;;23.80;10.73;;;-4.20;99.90;;;;;;5072180;28;20048;-54
2022/01/13 09:31:34;;;;;;;18.08;9.10;;;-4.20;99.90;;;;;;5072455;28;20044;-53
2022/01/13 09:34:03;;;;;;;17.35;7.80;;;-4.10;99.90;;;;;;5072253;28;20374;-54
2022/01/13 09:36:31;;;;;;;18.52;8.05;;;-4.00;99.90;;;;;;5071853;28;20063;-50
2022/01/13 09:38:59;;;;;;;24.55;8.45;;;-4.00;99.90;;;;;;5072160;28;20040;-54
2022/01/13 09:41:30;;;;;;;14.48;7.40;;;-3.90;99.90;;;;;;5072009;28;20506;-54
2022/01/13 09:43:59;;;;;;;14.43;6.68;;;-3.80;99.90;;;;;;5072281;28;20459;-53
2022/01/13 09:46:27;;;;;;;14.88;6.32;;;-3.70;99.90;;;;;;5071755;28;20089;-55
2022/01/13 09:48:55;;;;;;;16.10;6.68;;;-3.60;99.90;;;;;;5072062;28;20493;-53
2022/01/13 09:51:26;;;;;;;13.48;6.35;;;-3.60;99.90;;;;;;5071989;28;20071;-56
2022/01/13 09:53:53;;;;;;;17.13;6.68;;;-3.50;99.90;;;;;;5071756;28;20040;-56
2022/01/13 09:56:20;;;;;;;;;;;-3.40;99.90;;;;;;5071980;28;20049;-52
2022/01/13 09:58:47;;;;;;;15.63;6.43;;;-3.30;99.90;;;;;;5071875;28;19920;-53
2022/01/13 10:01:15;;;;;;;;;;;-3.30;99.90;;;;;;5072072;28;20040;-55
2022/01/13 10:03:42;;;;;;;7.35;3.90;;;-3.20;99.90;;;;;;5071721;28;19927;-54
2022/01/13 10:06:14;;;;;;;12.88;6.40;;;-3.20;99.90;;;;;;5071377;28;20528;-52
2022/01/13 10:08:41;;;;;;;26.02;6.78;;;-3.10;99.90;;;;;;5071805;28;20052;-52
2022/01/13 10:11:37;;;;;;;16.27;6.75;;;-3.00;99.90;;;;;;5071227;28;20508;-51
2022/01/13 10:17:00;;;;;;;13.90;6.45;;;-2.80;99.90;;;;;;5071227;28;20041;-53
2022/01/13 10:19:38;;;;;;;13.80;6.47;;;-2.70;99.90;;;;;;5071663;28;20489;-54
2022/01/13 10:22:05;;;;;;;15.85;7.28;;;-2.70;99.90;;;;;;5071782;28;20216;-52
2022/01/13 10:24:36;;;;;;;16.02;7.28;;;-2.70;99.90;;;;;;5071562;28;20451;-53
2022/01/13 10:27:12;;;;;;;16.02;6.22;;;-2.50;99.90;;;;;;5070884;28;20079;-56
2022/01/13 10:29:51;;;;;;;16.90;7.68;;;-2.50;99.90;;;;;;5071483;28;20562;-55
2022/01/13 10:32:21;;;;;;;13.95;6.07;;;-2.40;99.90;;;;;;5071715;28;20052;-53
2022/01/13 10:34:57;;;;;;;15.85;7.28;;;-2.30;99.90;;;;;;5071321;28;20090;-56
2022/01/13 10:37:36;;;;;;;11.82;5.63;;;-2.20;99.90;;;;;;5085486;22;20392;-48
2022/01/13 10:40:21;;;;;;;15.05;5.18;;;-2.10;99.90;;;;;;5070017;28;20044;-49
2022/01/13 10:43:10;;;;;;;14.32;4.78;;;-2.00;99.90;;;;;;5064393;28;20091;-51
2022/01/13 10:46:07;;;;;;;9.40;4.43;;;-2.00;99.90;;;;;;5050811;28;20037;-50
2022/01/13 10:48:36;;;;;;;13.60;5.03;;;-1.90;99.90;;;;;;5047033;28;20106;-49
2022/01/13 10:51:06;;;;;;;15.05;5.30;;;-1.70;99.90;;;;;;5051225;28;20087;-48
2022/01/13 10:53:36;;;;;;;11.18;5.30;;;-1.80;99.90;;;;;;5051089;28;20045;-49
2022/01/13 10:56:17;;;;;;;12.40;5.13;;;-1.60;99.90;;;;;;5051323;28;20127;-48
2022/01/13 10:58:52;;;;;;;12.93;5.88;;;-1.40;99.90;;;;;;5051087;28;20057;-48
2022/01/13 11:01:21;;;;;;;17.20;5.57;;;-1.20;99.90;;;;;;5051191;28;20444;-48
2022/01/13 11:03:51;;;;;;;13.75;5.32;;;-1.30;99.90;;;;;;5050888;28;20124;-49
2022/01/13 11:06:19;;;;;;;15.10;5.03;;;-1.30;99.90;;;;;;5050550;28;20037;-52
2022/01/13 11:08:47;;;;;;;9.98;4.80;;;-1.20;99.90;;;;;;5051142;28;20033;-52
2022/01/13 11:11:27;;;;;;;7.50;3.15;;;-1.10;99.90;;;;;;5050872;28;20053;-50
2022/01/13 11:13:59;;;;;;;11.45;4.50;;;-1.00;99.90;;;;;;5050926;28;20044;-49
2022/01/13 11:16:29;;;;;;;11.85;4.32;;;-0.90;99.90;;;;;;5050637;28;20059;-49
2022/01/13 11:18:57;;;;;;;11.80;4.03;;;-0.80;99.90;;;;;;5050948;28;20083;-50
2022/01/13 11:21:26;;;;;;;20.88;5.03;;;-0.70;99.90;;;;;;5051086;28;20075;-52
2022/01/13 11:23:55;;;;;;;16.63;5.25;;;-0.70;99.90;;;;;;5053665;28;20045;-48
2022/01/13 11:26:27;;;;;;;22.20;5.15;;;-0.70;99.90;;;;;;5054483;28;20041;-50
2022/01/13 11:28:55;;;;;;;12.13;5.10;;;-0.80;99.90;;;;;;5054383;28;20045;-50
2022/01/13 11:31:22;;;;;;;10.88;4.35;;;-0.60;99.90;;;;;;5054850;28;20086;-49
2022/01/13 11:33:50;;;;;;;9.57;4.90;;;-0.60;99.90;;;;;;5054731;28;20497;-50
2022/01/13 11:36:19;;;;;;;8.90;4.63;;;-0.60;99.90;;;;;;5054230;28;20440;-48
2022/01/13 11:38:55;;;;;;;9.85;4.68;;;-0.50;99.90;;;;;;5054157;28;20056;-49
2022/01/13 11:41:22;;;;;;;10.82;4.57;;;-0.50;99.90;;;;;;5054483;28;20482;-52
2022/01/13 11:43:50;;;;;;;8.52;4.13;;;-0.50;99.90;;;;;;5054276;28;20063;-50
2022/01/13 11:46:26;;;;;;;10.13;4.20;;;-0.40;99.90;;;;;;5054143;28;20481;-48
2022/01/13 11:49:04;;;;;;;10.80;4.10;;;-0.30;99.90;;;;;;5054216;28;20041;-49
2022/01/13 11:52:15;;;;;;;6.53;3.88;;;-0.30;99.90;;;;;;5054457;28;20091;-50
2022/01/13 11:54:43;;;;;;;8.65;3.90;;;-0.20;99.90;;;;;;5046063;28;20517;-51
2022/01/13 11:57:35;;;;;;;13.53;3.83;;;-0.40;99.90;;;;;;5052641;28;20495;-50
2022/01/13 12:00:03;;;;;;;11.85;4.57;;;-0.20;99.90;;;;;;5054162;28;20048;-49
2022/01/13 12:02:42;;;;;;;12.85;3.75;;;-0.20;99.90;;;;;;5054151;28;20420;-49
2022/01/13 12:05:15;;;;;;;9.95;3.80;;;-0.20;99.90;;;;;;5053808;28;20049;-49
2022/01/13 12:07:48;;;;;;;7.93;3.88;;;-0.20;99.90;;;;;;5053980;28;20040;-49
2022/01/13 12:10:24;;;;;;;11.00;3.72;;;-0.10;99.90;;;;;;5053770;28;20045;-50
2022/01/13 12:12:52;;;;;;;7.20;3.83;;;-0.10;99.90;;;;;;5053819;28;20041;-49
2022/01/13 12:15:25;;;;;;;6.32;3.88;;;0.00;99.90;;;;;;5053587;28;20278;-48
2022/01/13 12:17:59;;;;;;;13.38;3.85;;;0.10;99.90;;;;;;5053803;28;20094;-49
2022/01/13 12:21:20;;;;;;;6.78;3.30;;;0.20;99.90;;;;;;5053851;28;20040;-50
2022/01/13 12:23:42;;;;;;;12.52;3.40;;;0.40;99.90;;;;;;5052624;28;20073;-50
2022/01/13 12:26:46;;;;;;;10.45;3.35;;;0.50;99.90;;;;;;5053190;28;20072;-50
2022/01/13 12:29:20;;;;;;;9.73;3.78;;;0.40;99.90;;;;;;5054102;28;20041;-49
2022/01/13 12:32:05;;;;;;;8.95;3.58;;;0.40;99.90;;;;;;5053583;28;20041;-49
2022/01/13 12:34:35;;;;;;;6.20;2.95;;;0.40;99.90;;;;;;5053271;28;20048;-50
2022/01/13 12:37:11;;;;;;;14.80;4.55;;;0.50;99.90;;;;;;5052988;28;20049;-52
2022/01/13 12:39:45;;;;;;;7.40;3.88;;;0.50;99.90;;;;;;5053249;28;20045;-50
2022/01/13 12:42:17;;;;;;;9.05;4.30;;;0.60;99.90;;;;;;5053129;28;20045;-51
2022/01/13 12:47:30;;;;;;;10.63;3.47;;;0.60;99.90;;;;;;5052906;28;20044;-51
2022/01/13 12:49:57;;;;;;;7.10;3.30;;;0.80;99.90;;;;;;5053301;28;20446;-49
2022/01/13 12:52:26;;;;;;;8.43;3.97;;;0.80;99.90;;;;;;5053200;28;20044;-52
2022/01/13 12:54:54;;;;;;;7.55;3.55;;;0.70;99.90;;;;;;5053119;28;20045;-49
2022/01/13 12:57:24;;;;;;;7.13;3.33;;;0.80;99.90;;;;;;5052493;28;20099;-51
2022/01/13 12:59:56;;;;;;;6.80;2.95;;;0.90;99.90;;;;;;5052890;28;20065;-52
2022/01/13 13:02:23;;;;;;;12.23;3.50;;;1.00;99.90;;;;;;5053038;28;20102;-52
2022/01/13 13:04:50;;;;;;;8.20;3.33;;;1.00;99.90;;;;;;5052656;28;20037;-49
2022/01/13 13:07:17;;;;;;;12.27;3.28;;;1.00;99.90;;;;;;5052230;28;20045;-50
2022/01/13 13:09:44;;;;;;;8.95;3.40;;;1.10;99.90;;;;;;5052968;28;20060;-50
2022/01/13 13:12:23;;;;;;;6.18;1.80;;;1.10;99.90;;;;;;5052760;28;20068;-49
2022/01/13 13:17:40;;;;;;;16.10;3.20;;;1.20;99.90;;;;;;5052342;28;20056;-49
2022/01/13 13:20:21;;;;;;;9.70;3.28;;;1.20;99.90;;;;;;5052806;28;20049;-51
2022/01/13 13:22:54;;;;;;;10.05;3.47;;;1.20;99.90;;;;;;5052717;28;20099;-50
2022/01/13 13:25:38;;;;;;;8.95;2.90;;;1.20;99.90;;;;;;5051917;28;20444;-49
2022/01/13 13:28:24;;;;;;;6.50;2.78;;;1.30;99.90;;;;;;5052380;28;20478;-48
2022/01/13 13:30:56;;;;;;;6.88;2.80;;;1.40;99.90;;;;;;5052539;28;20075;-49
2022/01/13 13:33:49;;;;;;;11.27;3.30;;;1.40;99.90;;;;;;5052382;28;20045;-51